Weather at Bamyan Airport

Public forecast

Using degrees Celsius for public forecast. Weather courtesy of forecast.io.

Closest aviation weather report (METAR) to Bamyan Airport

Closest report is Hamid Karzai International Airport, 70.4 nm (130.4 km) ESE. Retrieved 2021/07/29 07:50 UTC (54 minutes ago):

OAKB 290750Z 36012KT 9000 4500SE HZ NSC 33/07 Q1007 RMK A2975 BLU BLU

Closest aviation forecast (TAF) to Bamyan Airport

Closest forecast is Hamid Karzai International Airport, 70.4 nm (130.4 km) ESE. Retrieved 2021/07/29 06:05 UTC (3 hours ago):

TAF OAKB 290505Z 2906/3006 01012KT 8000 NSC BECMG 2909/2911 12012KT 9000 FEW100 TEMPO 2911/2915 07015G25KT BECMG 2918/2920 VRB02KT CAVOK